Terminal Aerodrome Forecast
Issued by NWS Jackson, KY

Home | Current Version | Previous Version | Text Only | Print | Product List | Glossary On
Versions: 1 2 3 4 5 6 7 8 9 10 11 12 13 14 15 16 17 18 19 20 21 22 23
000
FTUS43 KJKL 150500
TAFJKL
TAF
KJKL 150526Z 1506/1606 29008G16KT P6SM -SHRA BKN006 OVC012
     FM151000 31010G18KT 4SM -RASN BR OVC008
     FM151200 33008KT 1 1/2SM -SN OVC006
     FM151500 31008KT 5SM -SHSN OVC008
     FM151700 30010G20KT P6SM SCT012 OVC018
     FM152000 30010G18KT P6SM SCT022 OVC035
     FM152300 VRB04KT P6SM BKN035=

USA.gov is the U.S. government's official web portal to all federal, state and local government web resources and services.